sensor_id;sensor_type;location;lat;lon;timestamp;temperature;humidity
10278;DHT22;5184;51.376;7.148;2023-12-29T00:00:36;10.10;99.90
10278;DHT22;5184;51.376;7.148;2023-12-29T00:03:03;10.10;99.90
10278;DHT22;5184;51.376;7.148;2023-12-29T00:05:31;10.10;99.90
10278;DHT22;5184;51.376;7.148;2023-12-29T00:07:58;10.10;99.90
10278;DHT22;5184;51.376;7.148;2023-12-29T00:10:25;10.10;99.90
10278;DHT22;5184;51.376;7.148;2023-12-29T00:12:51;10.10;99.90
10278;DHT22;5184;51.376;7.148;2023-12-29T00:15:18;10.10;99.90
10278;DHT22;5184;51.376;7.148;2023-12-29T00:17:45;10.20;99.90
10278;DHT22;5184;51.376;7.148;2023-12-29T00:20:11;10.20;98.20
10278;DHT22;5184;51.376;7.148;2023-12-29T00:22:38;10.20;99.90
10278;DHT22;5184;51.376;7.148;2023-12-29T00:25:06;10.20;99.50
10278;DHT22;5184;51.376;7.148;2023-12-29T00:27:32;10.20;98.10
10278;DHT22;5184;51.376;7.148;2023-12-29T00:29:59;10.20;99.00
10278;DHT22;5184;51.376;7.148;2023-12-29T00:32:26;10.20;95.80
10278;DHT22;5184;51.376;7.148;2023-12-29T00:34:52;10.20;98.50
10278;DHT22;5184;51.376;7.148;2023-12-29T00:37:19;10.20;99.60
10278;DHT22;5184;51.376;7.148;2023-12-29T00:39:46;10.20;99.90
10278;DHT22;5184;51.376;7.148;2023-12-29T00:42:14;10.60;99.00
10278;DHT22;5184;51.376;7.148;2023-12-29T00:44:40;10.20;97.10
10278;DHT22;5184;51.376;7.148;2023-12-29T00:47:07;10.20;99.90
10278;DHT22;5184;51.376;7.148;2023-12-29T00:49:33;10.20;99.20
10278;DHT22;5184;51.376;7.148;2023-12-29T00:52:00;10.20;99.90
10278;DHT22;5184;51.376;7.148;2023-12-29T00:54:26;10.20;99.20
10278;DHT22;5184;51.376;7.148;2023-12-29T00:56:54;10.20;99.90
10278;DHT22;5184;51.376;7.148;2023-12-29T00:59:21;10.20;99.90
10278;DHT22;5184;51.376;7.148;2023-12-29T01:01:48;10.80;99.50
10278;DHT22;5184;51.376;7.148;2023-12-29T01:04:14;10.20;99.20
10278;DHT22;5184;51.376;7.148;2023-12-29T01:06:41;10.20;99.90
10278;DHT22;5184;51.376;7.148;2023-12-29T01:09:08;10.20;97.10
10278;DHT22;5184;51.376;7.148;2023-12-29T01:11:34;10.30;99.90
10278;DHT22;5184;51.376;7.148;2023-12-29T01:14:02;10.30;94.10
10278;DHT22;5184;51.376;7.148;2023-12-29T01:16:29;10.30;99.50
10278;DHT22;5184;51.376;7.148;2023-12-29T01:18:55;10.30;97.70
10278;DHT22;5184;51.376;7.148;2023-12-29T01:21:22;10.30;99.90
10278;DHT22;5184;51.376;7.148;2023-12-29T01:23:49;10.30;97.90
10278;DHT22;5184;51.376;7.148;2023-12-29T01:26:15;10.20;99.50
10278;DHT22;5184;51.376;7.148;2023-12-29T01:28:42;10.20;99.90
10278;DHT22;5184;51.376;7.148;2023-12-29T01:31:09;10.20;99.90
10278;DHT22;5184;51.376;7.148;2023-12-29T01:33:37;10.20;99.90
10278;DHT22;5184;51.376;7.148;2023-12-29T01:36:03;10.20;99.90
10278;DHT22;5184;51.376;7.148;2023-12-29T01:38:30;10.20;99.90
10278;DHT22;5184;51.376;7.148;2023-12-29T01:40:57;10.20;99.90
10278;DHT22;5184;51.376;7.148;2023-12-29T01:43:23;10.20;99.90
10278;DHT22;5184;51.376;7.148;2023-12-29T01:45:50;10.20;99.90
10278;DHT22;5184;51.376;7.148;2023-12-29T01:48:16;10.20;99.90
10278;DHT22;5184;51.376;7.148;2023-12-29T01:50:44;10.20;99.90
10278;DHT22;5184;51.376;7.148;2023-12-29T01:53:11;10.20;99.90
10278;DHT22;5184;51.376;7.148;2023-12-29T01:55:38;10.10;99.90
10278;DHT22;5184;51.376;7.148;2023-12-29T01:58:04;10.20;99.90
10278;DHT22;5184;51.376;7.148;2023-12-29T02:00:31;10.10;99.90
10278;DHT22;5184;51.376;7.148;2023-12-29T02:02:57;10.10;99.90
10278;DHT22;5184;51.376;7.148;2023-12-29T02:05:24;10.10;99.90
10278;DHT22;5184;51.376;7.148;2023-12-29T02:07:51;10.20;99.90
10278;DHT22;5184;51.376;7.148;2023-12-29T02:10:19;10.10;99.90
10278;DHT22;5184;51.376;7.148;2023-12-29T02:12:46;10.10;99.90
10278;DHT22;5184;51.376;7.148;2023-12-29T02:15:12;10.00;99.90
10278;DHT22;5184;51.376;7.148;2023-12-29T02:17:44;10.00;99.90
10278;DHT22;5184;51.376;7.148;2023-12-29T02:20:08;9.90;99.90
10278;DHT22;5184;51.376;7.148;2023-12-29T02:22:36;9.60;99.90
10278;DHT22;5184;51.376;7.148;2023-12-29T02:25:05;9.60;99.90
10278;DHT22;5184;51.376;7.148;2023-12-29T02:30:23;9.40;99.90
10278;DHT22;5184;51.376;7.148;2023-12-29T02:32:48;9.30;99.90
10278;DHT22;5184;51.376;7.148;2023-12-29T02:35:18;9.20;99.90
10278;DHT22;5184;51.376;7.148;2023-12-29T02:37:45;9.00;99.90
10278;DHT22;5184;51.376;7.148;2023-12-29T02:40:12;8.90;99.90
10278;DHT22;5184;51.376;7.148;2023-12-29T02:42:44;8.80;99.90
10278;DHT22;5184;51.376;7.148;2023-12-29T02:45:07;8.80;99.90
10278;DHT22;5184;51.376;7.148;2023-12-29T02:47:34;8.80;99.90
10278;DHT22;5184;51.376;7.148;2023-12-29T02:50:01;8.70;99.90
10278;DHT22;5184;51.376;7.148;2023-12-29T02:52:27;8.70;99.90
10278;DHT22;5184;51.376;7.148;2023-12-29T02:54:54;8.70;99.90
10278;DHT22;5184;51.376;7.148;2023-12-29T02:57:21;8.70;99.90
10278;DHT22;5184;51.376;7.148;2023-12-29T02:59:47;8.80;99.90
10278;DHT22;5184;51.376;7.148;2023-12-29T03:02:14;8.80;99.90
10278;DHT22;5184;51.376;7.148;2023-12-29T03:04:42;8.80;99.90
10278;DHT22;5184;51.376;7.148;2023-12-29T03:07:09;8.90;99.90
10278;DHT22;5184;51.376;7.148;2023-12-29T03:09:35;9.00;99.90
10278;DHT22;5184;51.376;7.148;2023-12-29T03:12:03;9.00;99.90
10278;DHT22;5184;51.376;7.148;2023-12-29T03:14:31;9.00;99.90
10278;DHT22;5184;51.376;7.148;2023-12-29T03:16:58;9.60;99.90
10278;DHT22;5184;51.376;7.148;2023-12-29T03:19:25;9.00;99.90
10278;DHT22;5184;51.376;7.148;2023-12-29T03:21:53;9.10;99.90
10278;DHT22;5184;51.376;7.148;2023-12-29T03:24:20;9.10;99.90
10278;DHT22;5184;51.376;7.148;2023-12-29T03:26:47;9.10;99.90
10278;DHT22;5184;51.376;7.148;2023-12-29T03:29:15;9.10;99.90
10278;DHT22;5184;51.376;7.148;2023-12-29T03:31:42;9.20;99.90
10278;DHT22;5184;51.376;7.148;2023-12-29T03:34:09;9.10;99.90
10278;DHT22;5184;51.376;7.148;2023-12-29T03:36:35;9.20;99.90
10278;DHT22;5184;51.376;7.148;2023-12-29T03:39:02;9.20;99.90
10278;DHT22;5184;51.376;7.148;2023-12-29T03:41:28;9.30;99.90
10278;DHT22;5184;51.376;7.148;2023-12-29T03:43:55;9.30;99.90
10278;DHT22;5184;51.376;7.148;2023-12-29T03:46:22;9.30;99.90
10278;DHT22;5184;51.376;7.148;2023-12-29T03:48:49;9.30;99.90
10278;DHT22;5184;51.376;7.148;2023-12-29T03:51:17;9.30;99.90
10278;DHT22;5184;51.376;7.148;2023-12-29T03:53:42;9.40;99.90
10278;DHT22;5184;51.376;7.148;2023-12-29T03:56:13;9.40;99.90
10278;DHT22;5184;51.376;7.148;2023-12-29T03:58:36;9.30;99.90
10278;DHT22;5184;51.376;7.148;2023-12-29T04:01:09;9.30;99.90
10278;DHT22;5184;51.376;7.148;2023-12-29T04:03:32;9.40;99.90
10278;DHT22;5184;51.376;7.148;2023-12-29T04:05:59;9.40;99.90
10278;DHT22;5184;51.376;7.148;2023-12-29T04:08:26;9.40;99.90
10278;DHT22;5184;51.376;7.148;2023-12-29T04:10:54;9.40;99.90
10278;DHT22;5184;51.376;7.148;2023-12-29T04:13:20;9.40;99.90
10278;DHT22;5184;51.376;7.148;2023-12-29T04:15:47;9.50;99.90
10278;DHT22;5184;51.376;7.148;2023-12-29T04:18:14;9.40;99.90
10278;DHT22;5184;51.376;7.148;2023-12-29T04:20:40;9.50;99.90
10278;DHT22;5184;51.376;7.148;2023-12-29T04:23:07;9.50;99.90
10278;DHT22;5184;51.376;7.148;2023-12-29T04:25:33;9.50;99.90
10278;DHT22;5184;51.376;7.148;2023-12-29T04:28:00;9.50;99.90
10278;DHT22;5184;51.376;7.148;2023-12-29T04:30:27;9.50;99.90
10278;DHT22;5184;51.376;7.148;2023-12-29T04:32:55;9.50;99.90
10278;DHT22;5184;51.376;7.148;2023-12-29T04:35:22;9.60;99.90
10278;DHT22;5184;51.376;7.148;2023-12-29T04:37:49;9.60;99.90
10278;DHT22;5184;51.376;7.148;2023-12-29T04:40:17;9.50;99.90
10278;DHT22;5184;51.376;7.148;2023-12-29T04:42:44;9.40;99.90
10278;DHT22;5184;51.376;7.148;2023-12-29T04:45:11;9.40;99.90
10278;DHT22;5184;51.376;7.148;2023-12-29T04:47:37;9.30;99.90
10278;DHT22;5184;51.376;7.148;2023-12-29T04:50:05;9.30;99.90
10278;DHT22;5184;51.376;7.148;2023-12-29T04:52:32;9.30;99.90
10278;DHT22;5184;51.376;7.148;2023-12-29T04:54:59;9.30;99.90
10278;DHT22;5184;51.376;7.148;2023-12-29T04:57:27;9.30;99.90
10278;DHT22;5184;51.376;7.148;2023-12-29T04:59:54;9.40;99.90
10278;DHT22;5184;51.376;7.148;2023-12-29T05:02:21;9.40;99.90
10278;DHT22;5184;51.376;7.148;2023-12-29T05:04:48;9.40;99.90
10278;DHT22;5184;51.376;7.148;2023-12-29T05:07:14;9.40;99.90
10278;DHT22;5184;51.376;7.148;2023-12-29T05:09:41;9.50;99.90
10278;DHT22;5184;51.376;7.148;2023-12-29T05:12:08;9.60;99.90
10278;DHT22;5184;51.376;7.148;2023-12-29T05:14:34;9.60;99.90
10278;DHT22;5184;51.376;7.148;2023-12-29T05:17:02;9.60;99.90
10278;DHT22;5184;51.376;7.148;2023-12-29T05:19:29;9.70;99.90
10278;DHT22;5184;51.376;7.148;2023-12-29T05:21:56;9.60;99.90
10278;DHT22;5184;51.376;7.148;2023-12-29T05:24:23;9.70;99.90
10278;DHT22;5184;51.376;7.148;2023-12-29T05:26:50;9.70;99.90
10278;DHT22;5184;51.376;7.148;2023-12-29T05:29:18;9.70;99.90
10278;DHT22;5184;51.376;7.148;2023-12-29T05:31:45;9.80;99.90
10278;DHT22;5184;51.376;7.148;2023-12-29T05:34:12;9.80;99.90
10278;DHT22;5184;51.376;7.148;2023-12-29T05:36:40;9.80;99.90
10278;DHT22;5184;51.376;7.148;2023-12-29T05:39:07;9.80;99.90
10278;DHT22;5184;51.376;7.148;2023-12-29T05:41:34;9.80;99.90
10278;DHT22;5184;51.376;7.148;2023-12-29T05:44:02;9.80;99.90
10278;DHT22;5184;51.376;7.148;2023-12-29T05:46:28;9.80;99.90
10278;DHT22;5184;51.376;7.148;2023-12-29T05:48:55;9.80;99.90
10278;DHT22;5184;51.376;7.148;2023-12-29T05:51:22;9.80;99.90
10278;DHT22;5184;51.376;7.148;2023-12-29T05:53:49;9.80;99.90
10278;DHT22;5184;51.376;7.148;2023-12-29T05:56:16;9.80;99.90
10278;DHT22;5184;51.376;7.148;2023-12-29T05:58:44;9.80;99.90
10278;DHT22;5184;51.376;7.148;2023-12-29T06:01:10;9.80;99.90
10278;DHT22;5184;51.376;7.148;2023-12-29T06:03:37;9.80;99.90
10278;DHT22;5184;51.376;7.148;2023-12-29T06:06:04;9.80;99.90
10278;DHT22;5184;51.376;7.148;2023-12-29T06:08:30;9.80;99.90
10278;DHT22;5184;51.376;7.148;2023-12-29T06:10:57;9.90;99.90
10278;DHT22;5184;51.376;7.148;2023-12-29T06:13:23;9.90;99.90
10278;DHT22;5184;51.376;7.148;2023-12-29T06:15:50;9.80;99.90
10278;DHT22;5184;51.376;7.148;2023-12-29T06:18:17;9.80;99.90
10278;DHT22;5184;51.376;7.148;2023-12-29T06:20:43;9.80;99.90
10278;DHT22;5184;51.376;7.148;2023-12-29T06:23:11;9.90;99.90
10278;DHT22;5184;51.376;7.148;2023-12-29T06:25:37;9.90;99.90
10278;DHT22;5184;51.376;7.148;2023-12-29T06:28:04;9.80;99.90
10278;DHT22;5184;51.376;7.148;2023-12-29T06:30:30;9.80;99.90
10278;DHT22;5184;51.376;7.148;2023-12-29T06:32:57;9.80;99.90
10278;DHT22;5184;51.376;7.148;2023-12-29T06:35:24;9.80;99.90
10278;DHT22;5184;51.376;7.148;2023-12-29T06:37:52;9.70;99.90
10278;DHT22;5184;51.376;7.148;2023-12-29T06:40:19;9.80;99.90
10278;DHT22;5184;51.376;7.148;2023-12-29T06:42:46;9.80;99.90
10278;DHT22;5184;51.376;7.148;2023-12-29T06:45:14;9.80;99.90
10278;DHT22;5184;51.376;7.148;2023-12-29T06:47:41;9.70;99.90
10278;DHT22;5184;51.376;7.148;2023-12-29T06:50:08;9.70;99.90
10278;DHT22;5184;51.376;7.148;2023-12-29T06:52:35;9.80;99.90
10278;DHT22;5184;51.376;7.148;2023-12-29T06:55:03;9.70;99.90
10278;DHT22;5184;51.376;7.148;2023-12-29T06:57:30;9.70;99.90
10278;DHT22;5184;51.376;7.148;2023-12-29T06:59:57;9.70;99.90
10278;DHT22;5184;51.376;7.148;2023-12-29T07:02:23;9.70;99.90
10278;DHT22;5184;51.376;7.148;2023-12-29T07:04:50;9.70;99.90
10278;DHT22;5184;51.376;7.148;2023-12-29T07:07:17;9.70;99.90
10278;DHT22;5184;51.376;7.148;2023-12-29T07:09:44;9.70;99.90
10278;DHT22;5184;51.376;7.148;2023-12-29T07:12:11;9.70;99.90
10278;DHT22;5184;51.376;7.148;2023-12-29T07:14:40;9.70;99.90
10278;DHT22;5184;51.376;7.148;2023-12-29T07:17:05;9.70;99.90
10278;DHT22;5184;51.376;7.148;2023-12-29T07:19:32;9.80;99.90
10278;DHT22;5184;51.376;7.148;2023-12-29T07:22:01;9.70;99.90
10278;DHT22;5184;51.376;7.148;2023-12-29T07:24:27;9.60;99.90
10278;DHT22;5184;51.376;7.148;2023-12-29T07:26:54;9.40;99.90
10278;DHT22;5184;51.376;7.148;2023-12-29T07:29:21;9.20;99.90
10278;DHT22;5184;51.376;7.148;2023-12-29T07:31:47;9.10;99.90
10278;DHT22;5184;51.376;7.148;2023-12-29T07:34:14;9.00;99.90
10278;DHT22;5184;51.376;7.148;2023-12-29T07:36:41;8.80;99.90
10278;DHT22;5184;51.376;7.148;2023-12-29T07:39:09;8.70;99.90
10278;DHT22;5184;51.376;7.148;2023-12-29T07:41:40;8.70;99.90
10278;DHT22;5184;51.376;7.148;2023-12-29T07:44:06;8.70;99.90
10278;DHT22;5184;51.376;7.148;2023-12-29T07:46:33;8.80;99.90
10278;DHT22;5184;51.376;7.148;2023-12-29T07:48:59;8.80;99.90
10278;DHT22;5184;51.376;7.148;2023-12-29T07:51:27;8.70;99.90
10278;DHT22;5184;51.376;7.148;2023-12-29T07:53:54;8.70;99.90
10278;DHT22;5184;51.376;7.148;2023-12-29T07:56:22;8.70;99.90
10278;DHT22;5184;51.376;7.148;2023-12-29T07:58:49;8.70;99.90
10278;DHT22;5184;51.376;7.148;2023-12-29T08:01:15;8.70;99.90
10278;DHT22;5184;51.376;7.148;2023-12-29T08:03:42;8.80;99.90
10278;DHT22;5184;51.376;7.148;2023-12-29T08:06:09;8.80;99.90
10278;DHT22;5184;51.376;7.148;2023-12-29T08:08:35;8.90;99.90
10278;DHT22;5184;51.376;7.148;2023-12-29T08:11:02;8.90;99.90
10278;DHT22;5184;51.376;7.148;2023-12-29T08:13:29;8.80;99.90
10278;DHT22;5184;51.376;7.148;2023-12-29T08:15:57;8.80;99.90
10278;DHT22;5184;51.376;7.148;2023-12-29T08:18:24;8.80;99.90
10278;DHT22;5184;51.376;7.148;2023-12-29T08:20:51;8.80;99.90
10278;DHT22;5184;51.376;7.148;2023-12-29T08:23:18;8.80;99.90
10278;DHT22;5184;51.376;7.148;2023-12-29T08:25:44;8.80;99.90
10278;DHT22;5184;51.376;7.148;2023-12-29T08:28:11;8.80;99.90
10278;DHT22;5184;51.376;7.148;2023-12-29T08:30:38;8.80;99.90
10278;DHT22;5184;51.376;7.148;2023-12-29T08:33:04;8.80;99.90
10278;DHT22;5184;51.376;7.148;2023-12-29T08:35:31;8.70;99.90
10278;DHT22;5184;51.376;7.148;2023-12-29T08:37:58;8.70;99.90
10278;DHT22;5184;51.376;7.148;2023-12-29T08:40:24;8.70;99.90
10278;DHT22;5184;51.376;7.148;2023-12-29T08:42:52;8.70;99.90
10278;DHT22;5184;51.376;7.148;2023-12-29T08:45:18;8.70;99.90
10278;DHT22;5184;51.376;7.148;2023-12-29T08:47:46;8.70;99.90
10278;DHT22;5184;51.376;7.148;2023-12-29T08:50:12;8.70;99.90
10278;DHT22;5184;51.376;7.148;2023-12-29T08:52:39;8.70;99.90
10278;DHT22;5184;51.376;7.148;2023-12-29T08:55:07;8.80;99.90
10278;DHT22;5184;51.376;7.148;2023-12-29T08:57:33;8.80;99.90
10278;DHT22;5184;51.376;7.148;2023-12-29T09:00:01;8.80;99.90
10278;DHT22;5184;51.376;7.148;2023-12-29T09:02:28;8.90;99.90
10278;DHT22;5184;51.376;7.148;2023-12-29T09:04:55;8.90;99.90
10278;DHT22;5184;51.376;7.148;2023-12-29T09:07:23;8.90;99.90
10278;DHT22;5184;51.376;7.148;2023-12-29T09:09:50;8.90;99.90
10278;DHT22;5184;51.376;7.148;2023-12-29T09:12:17;8.90;99.90
10278;DHT22;5184;51.376;7.148;2023-12-29T09:14:44;8.90;99.90
10278;DHT22;5184;51.376;7.148;2023-12-29T09:17:11;8.90;99.90
10278;DHT22;5184;51.376;7.148;2023-12-29T09:19:37;8.90;99.90
10278;DHT22;5184;51.376;7.148;2023-12-29T09:22:04;8.90;99.90
10278;DHT22;5184;51.376;7.148;2023-12-29T09:24:30;8.90;99.90
10278;DHT22;5184;51.376;7.148;2023-12-29T09:26:58;8.90;99.90
10278;DHT22;5184;51.376;7.148;2023-12-29T09:29:25;8.90;99.90
10278;DHT22;5184;51.376;7.148;2023-12-29T09:31:53;8.90;99.90
10278;DHT22;5184;51.376;7.148;2023-12-29T09:34:19;8.90;99.90
10278;DHT22;5184;51.376;7.148;2023-12-29T09:36:46;9.00;99.90
10278;DHT22;5184;51.376;7.148;2023-12-29T09:39:14;9.00;99.90
10278;DHT22;5184;51.376;7.148;2023-12-29T09:41:42;9.00;99.90
10278;DHT22;5184;51.376;7.148;2023-12-29T09:44:10;9.00;99.90
10278;DHT22;5184;51.376;7.148;2023-12-29T09:46:36;9.60;99.90
10278;DHT22;5184;51.376;7.148;2023-12-29T09:49:03;9.00;99.90
10278;DHT22;5184;51.376;7.148;2023-12-29T09:51:31;9.00;99.90
10278;DHT22;5184;51.376;7.148;2023-12-29T09:53:58;9.00;99.90
10278;DHT22;5184;51.376;7.148;2023-12-29T09:56:25;8.90;99.90
10278;DHT22;5184;51.376;7.148;2023-12-29T09:58:53;9.00;99.90
10278;DHT22;5184;51.376;7.148;2023-12-29T10:01:21;8.90;99.90
10278;DHT22;5184;51.376;7.148;2023-12-29T10:03:48;8.90;99.90
10278;DHT22;5184;51.376;7.148;2023-12-29T10:06:16;8.90;99.90
10278;DHT22;5184;51.376;7.148;2023-12-29T10:08:42;8.90;99.90
10278;DHT22;5184;51.376;7.148;2023-12-29T10:11:07;8.90;99.90
10278;DHT22;5184;51.376;7.148;2023-12-29T10:13:34;8.90;99.90
10278;DHT22;5184;51.376;7.148;2023-12-29T10:16:08;8.80;99.90
10278;DHT22;5184;51.376;7.148;2023-12-29T10:18:35;8.90;99.90
10278;DHT22;5184;51.376;7.148;2023-12-29T10:21:01;8.80;99.90
10278;DHT22;5184;51.376;7.148;2023-12-29T10:23:32;8.80;99.90
10278;DHT22;5184;51.376;7.148;2023-12-29T10:25:58;8.70;99.90
10278;DHT22;5184;51.376;7.148;2023-12-29T10:28:25;8.70;99.90
10278;DHT22;5184;51.376;7.148;2023-12-29T10:30:52;8.80;99.90
10278;DHT22;5184;51.376;7.148;2023-12-29T10:33:20;8.80;99.90
10278;DHT22;5184;51.376;7.148;2023-12-29T10:35:57;8.80;99.90
10278;DHT22;5184;51.376;7.148;2023-12-29T10:38:23;8.80;99.90
10278;DHT22;5184;51.376;7.148;2023-12-29T10:40:50;8.90;99.90
10278;DHT22;5184;51.376;7.148;2023-12-29T10:43:21;8.90;99.90
10278;DHT22;5184;51.376;7.148;2023-12-29T10:45:43;8.90;99.90
10278;DHT22;5184;51.376;7.148;2023-12-29T10:48:11;9.00;99.90
10278;DHT22;5184;51.376;7.148;2023-12-29T10:50:47;9.00;99.90
10278;DHT22;5184;51.376;7.148;2023-12-29T10:53:14;9.00;99.90
10278;DHT22;5184;51.376;7.148;2023-12-29T10:55:40;9.00;99.90
10278;DHT22;5184;51.376;7.148;2023-12-29T10:58:07;9.00;99.90
10278;DHT22;5184;51.376;7.148;2023-12-29T11:00:33;9.10;99.90
10278;DHT22;5184;51.376;7.148;2023-12-29T11:03:00;9.20;99.90
10278;DHT22;5184;51.376;7.148;2023-12-29T11:05:27;9.30;99.90
10278;DHT22;5184;51.376;7.148;2023-12-29T11:07:53;9.30;99.90
10278;DHT22;5184;51.376;7.148;2023-12-29T11:10:20;9.30;99.90
10278;DHT22;5184;51.376;7.148;2023-12-29T11:12:47;9.30;99.90
10278;DHT22;5184;51.376;7.148;2023-12-29T11:15:13;9.30;99.90
10278;DHT22;5184;51.376;7.148;2023-12-29T11:17:41;9.30;99.90
10278;DHT22;5184;51.376;7.148;2023-12-29T11:20:06;9.30;99.90
10278;DHT22;5184;51.376;7.148;2023-12-29T11:22:33;9.30;99.90
10278;DHT22;5184;51.376;7.148;2023-12-29T11:24:59;9.30;99.90
10278;DHT22;5184;51.376;7.148;2023-12-29T11:27:27;9.40;99.90
10278;DHT22;5184;51.376;7.148;2023-12-29T11:29:54;9.50;99.90
10278;DHT22;5184;51.376;7.148;2023-12-29T11:32:23;9.50;99.90
10278;DHT22;5184;51.376;7.148;2023-12-29T11:34:52;9.50;99.90
10278;DHT22;5184;51.376;7.148;2023-12-29T11:37:25;9.60;99.90
10278;DHT22;5184;51.376;7.148;2023-12-29T11:39:50;9.60;99.90
10278;DHT22;5184;51.376;7.148;2023-12-29T11:42:21;9.60;99.90
10278;DHT22;5184;51.376;7.148;2023-12-29T11:44:48;9.70;99.90
10278;DHT22;5184;51.376;7.148;2023-12-29T11:47:34;9.80;99.90
10278;DHT22;5184;51.376;7.148;2023-12-29T11:50:01;9.80;99.90
10278;DHT22;5184;51.376;7.148;2023-12-29T11:52:33;9.70;99.90
10278;DHT22;5184;51.376;7.148;2023-12-29T11:55:08;9.70;99.90
10278;DHT22;5184;51.376;7.148;2023-12-29T11:57:33;9.70;99.90
10278;DHT22;5184;51.376;7.148;2023-12-29T12:00:01;9.80;99.90
10278;DHT22;5184;51.376;7.148;2023-12-29T12:02:28;9.80;99.90
10278;DHT22;5184;51.376;7.148;2023-12-29T12:04:56;9.80;99.90
10278;DHT22;5184;51.376;7.148;2023-12-29T12:10:36;9.70;99.90
10278;DHT22;5184;51.376;7.148;2023-12-29T12:13:03;9.70;99.90
10278;DHT22;5184;51.376;7.148;2023-12-29T12:15:31;9.60;99.90
10278;DHT22;5184;51.376;7.148;2023-12-29T12:17:59;9.60;99.90
10278;DHT22;5184;51.376;7.148;2023-12-29T12:20:25;9.60;99.90
10278;DHT22;5184;51.376;7.148;2023-12-29T12:23:10;9.60;99.90
10278;DHT22;5184;51.376;7.148;2023-12-29T12:25:34;9.60;99.90
10278;DHT22;5184;51.376;7.148;2023-12-29T12:28:04;9.60;99.90
10278;DHT22;5184;51.376;7.148;2023-12-29T12:30:28;9.70;99.90
10278;DHT22;5184;51.376;7.148;2023-12-29T12:32:58;9.60;99.90
10278;DHT22;5184;51.376;7.148;2023-12-29T12:35:24;9.60;99.90
10278;DHT22;5184;51.376;7.148;2023-12-29T12:37:50;9.60;99.90
10278;DHT22;5184;51.376;7.148;2023-12-29T12:40:24;9.60;99.90
10278;DHT22;5184;51.376;7.148;2023-12-29T12:42:50;9.60;99.90
10278;DHT22;5184;51.376;7.148;2023-12-29T12:45:19;9.40;99.90
10278;DHT22;5184;51.376;7.148;2023-12-29T12:47:45;9.30;99.90
10278;DHT22;5184;51.376;7.148;2023-12-29T12:50:12;9.30;99.90
10278;DHT22;5184;51.376;7.148;2023-12-29T12:52:39;9.20;99.90
10278;DHT22;5184;51.376;7.148;2023-12-29T12:55:07;9.10;99.90
10278;DHT22;5184;51.376;7.148;2023-12-29T12:57:34;9.10;99.90
10278;DHT22;5184;51.376;7.148;2023-12-29T13:00:00;9.00;99.90
10278;DHT22;5184;51.376;7.148;2023-12-29T13:02:27;9.00;99.90
10278;DHT22;5184;51.376;7.148;2023-12-29T13:04:54;9.00;99.90
10278;DHT22;5184;51.376;7.148;2023-12-29T13:07:22;9.00;99.90
10278;DHT22;5184;51.376;7.148;2023-12-29T13:09:49;9.10;99.90
10278;DHT22;5184;51.376;7.148;2023-12-29T13:12:16;9.10;99.90
10278;DHT22;5184;51.376;7.148;2023-12-29T13:14:44;9.10;99.90
10278;DHT22;5184;51.376;7.148;2023-12-29T13:17:12;9.10;99.90
10278;DHT22;5184;51.376;7.148;2023-12-29T13:19:39;9.10;99.90
10278;DHT22;5184;51.376;7.148;2023-12-29T13:22:05;9.20;99.90
10278;DHT22;5184;51.376;7.148;2023-12-29T13:24:32;9.20;99.90
10278;DHT22;5184;51.376;7.148;2023-12-29T13:27:02;9.20;99.90
10278;DHT22;5184;51.376;7.148;2023-12-29T13:29:28;9.20;99.90
10278;DHT22;5184;51.376;7.148;2023-12-29T13:31:56;9.30;99.90
10278;DHT22;5184;51.376;7.148;2023-12-29T13:34:27;9.20;99.90
10278;DHT22;5184;51.376;7.148;2023-12-29T13:36:50;9.20;99.90
10278;DHT22;5184;51.376;7.148;2023-12-29T13:39:36;9.20;99.90
10278;DHT22;5184;51.376;7.148;2023-12-29T13:42:01;9.20;99.90
10278;DHT22;5184;51.376;7.148;2023-12-29T13:44:27;9.20;99.90
10278;DHT22;5184;51.376;7.148;2023-12-29T13:46:54;9.30;99.90
10278;DHT22;5184;51.376;7.148;2023-12-29T13:49:21;9.30;99.90
10278;DHT22;5184;51.376;7.148;2023-12-29T13:51:47;9.20;99.90
10278;DHT22;5184;51.376;7.148;2023-12-29T13:54:15;9.30;99.90
10278;DHT22;5184;51.376;7.148;2023-12-29T13:56:52;9.40;99.90
10278;DHT22;5184;51.376;7.148;2023-12-29T13:59:18;9.30;99.90
10278;DHT22;5184;51.376;7.148;2023-12-29T14:01:45;9.30;99.90
10278;DHT22;5184;51.376;7.148;2023-12-29T14:04:12;9.40;99.90
10278;DHT22;5184;51.376;7.148;2023-12-29T14:06:42;9.40;99.90
10278;DHT22;5184;51.376;7.148;2023-12-29T14:09:13;9.40;99.90
10278;DHT22;5184;51.376;7.148;2023-12-29T14:11:34;9.40;99.90
10278;DHT22;5184;51.376;7.148;2023-12-29T14:14:02;9.40;99.90
10278;DHT22;5184;51.376;7.148;2023-12-29T14:16:29;9.50;99.90
10278;DHT22;5184;51.376;7.148;2023-12-29T14:18:56;9.50;99.90
10278;DHT22;5184;51.376;7.148;2023-12-29T14:21:27;9.50;99.90
10278;DHT22;5184;51.376;7.148;2023-12-29T14:23:58;9.50;99.90
10278;DHT22;5184;51.376;7.148;2023-12-29T14:26:24;9.50;99.90
10278;DHT22;5184;51.376;7.148;2023-12-29T14:29:01;9.60;99.90
10278;DHT22;5184;51.376;7.148;2023-12-29T14:31:27;9.60;99.90
10278;DHT22;5184;51.376;7.148;2023-12-29T14:33:54;9.60;99.90
10278;DHT22;5184;51.376;7.148;2023-12-29T14:36:21;9.60;99.90
10278;DHT22;5184;51.376;7.148;2023-12-29T14:38:49;9.70;99.90
10278;DHT22;5184;51.376;7.148;2023-12-29T14:41:16;9.60;99.90
10278;DHT22;5184;51.376;7.148;2023-12-29T14:43:43;9.60;99.90
10278;DHT22;5184;51.376;7.148;2023-12-29T14:46:11;9.60;99.90
10278;DHT22;5184;51.376;7.148;2023-12-29T14:48:37;9.60;99.90
10278;DHT22;5184;51.376;7.148;2023-12-29T14:51:04;9.60;99.90
10278;DHT22;5184;51.376;7.148;2023-12-29T14:53:30;9.50;99.90
10278;DHT22;5184;51.376;7.148;2023-12-29T14:55:57;9.50;99.90
10278;DHT22;5184;51.376;7.148;2023-12-29T14:58:24;9.50;99.90
10278;DHT22;5184;51.376;7.148;2023-12-29T15:00:50;9.40;99.90
10278;DHT22;5184;51.376;7.148;2023-12-29T15:03:17;9.40;99.90
10278;DHT22;5184;51.376;7.148;2023-12-29T15:05:43;9.30;99.90
10278;DHT22;5184;51.376;7.148;2023-12-29T15:08:10;9.30;99.90
10278;DHT22;5184;51.376;7.148;2023-12-29T15:10:37;9.20;99.90
10278;DHT22;5184;51.376;7.148;2023-12-29T15:13:04;9.00;99.90
10278;DHT22;5184;51.376;7.148;2023-12-29T15:15:32;9.00;99.90
10278;DHT22;5184;51.376;7.148;2023-12-29T15:17:59;8.90;99.90
10278;DHT22;5184;51.376;7.148;2023-12-29T15:20:27;8.90;99.90
10278;DHT22;5184;51.376;7.148;2023-12-29T15:22:54;8.80;99.90
10278;DHT22;5184;51.376;7.148;2023-12-29T15:25:22;8.80;99.90
10278;DHT22;5184;51.376;7.148;2023-12-29T15:27:49;8.80;99.90
10278;DHT22;5184;51.376;7.148;2023-12-29T15:30:16;8.70;99.90
10278;DHT22;5184;51.376;7.148;2023-12-29T15:32:43;8.60;99.90
10278;DHT22;5184;51.376;7.148;2023-12-29T15:35:09;8.60;99.90
10278;DHT22;5184;51.376;7.148;2023-12-29T15:37:36;8.60;99.90
10278;DHT22;5184;51.376;7.148;2023-12-29T15:40:03;8.60;99.90
10278;DHT22;5184;51.376;7.148;2023-12-29T15:42:31;8.60;99.90
10278;DHT22;5184;51.376;7.148;2023-12-29T15:44:58;8.60;99.90
10278;DHT22;5184;51.376;7.148;2023-12-29T15:47:26;8.60;99.90
10278;DHT22;5184;51.376;7.148;2023-12-29T15:49:53;8.60;99.90
10278;DHT22;5184;51.376;7.148;2023-12-29T15:52:20;8.70;99.90
10278;DHT22;5184;51.376;7.148;2023-12-29T15:54:48;8.70;99.90
10278;DHT22;5184;51.376;7.148;2023-12-29T15:57:15;8.70;99.90
10278;DHT22;5184;51.376;7.148;2023-12-29T15:59:42;8.80;99.90
10278;DHT22;5184;51.376;7.148;2023-12-29T16:02:09;8.80;99.90
10278;DHT22;5184;51.376;7.148;2023-12-29T16:04:35;8.80;99.90